sensor_id;sensor_type;location;lat;lon;timestamp;pressure;altitude;pressure_sealevel;temperature;humidity
21781;BME280;52576;53.614;9.894;2023-03-19T00:00:43;100938.41;;;9.46;79.24
21781;BME280;52576;53.614;9.894;2023-03-19T00:02:48;100941.13;;;9.45;79.42
21781;BME280;52576;53.614;9.894;2023-03-19T00:04:52;100945.59;;;9.43;79.72
21781;BME280;52576;53.614;9.894;2023-03-19T00:06:56;100949.13;;;9.42;79.64
21781;BME280;52576;53.614;9.894;2023-03-19T00:08:59;100944.84;;;9.41;79.67
21781;BME280;52576;53.614;9.894;2023-03-19T00:11:06;100946.69;;;9.39;79.85
21781;BME280;52576;53.614;9.894;2023-03-19T00:13:09;100948.47;;;9.38;79.78
21781;BME280;52576;53.614;9.894;2023-03-19T00:15:13;100947.63;;;9.38;79.85
21781;BME280;52576;53.614;9.894;2023-03-19T00:17:17;100937.38;;;9.35;79.93
21781;BME280;52576;53.614;9.894;2023-03-19T00:19:21;100939.16;;;9.34;80.06
21781;BME280;52576;53.614;9.894;2023-03-19T00:21:25;100945.31;;;9.33;80.13
21781;BME280;52576;53.614;9.894;2023-03-19T00:23:31;100945.50;;;9.30;80.31
21781;BME280;52576;53.614;9.894;2023-03-19T00:25:34;100958.84;;;9.26;80.22
21781;BME280;52576;53.614;9.894;2023-03-19T00:27:38;100964.22;;;9.23;80.49
21781;BME280;52576;53.614;9.894;2023-03-19T00:29:41;100952.25;;;9.18;80.42
21781;BME280;52576;53.614;9.894;2023-03-19T00:31:45;100954.28;;;9.13;80.56
21781;BME280;52576;53.614;9.894;2023-03-19T00:33:49;100953.63;;;9.10;80.77
21781;BME280;52576;53.614;9.894;2023-03-19T00:35:54;100949.63;;;9.04;80.75
21781;BME280;52576;53.614;9.894;2023-03-19T00:37:57;100951.66;;;8.99;80.83
21781;BME280;52576;53.614;9.894;2023-03-19T00:40:01;100953.69;;;8.94;80.96
21781;BME280;52576;53.614;9.894;2023-03-19T00:42:05;100954.03;;;8.88;81.06
21781;BME280;52576;53.614;9.894;2023-03-19T00:44:10;100951.56;;;8.85;81.23
21781;BME280;52576;53.614;9.894;2023-03-19T00:46:13;100957.09;;;8.80;81.23
21781;BME280;52576;53.614;9.894;2023-03-19T00:48:18;100958.28;;;8.75;81.26
21781;BME280;52576;53.614;9.894;2023-03-19T00:50:22;100955.06;;;8.70;81.44
21781;BME280;52576;53.614;9.894;2023-03-19T00:52:27;100961.38;;;8.66;81.49
21781;BME280;52576;53.614;9.894;2023-03-19T00:54:31;100962.47;;;8.62;81.71
21781;BME280;52576;53.614;9.894;2023-03-19T00:56:36;100959.19;;;8.58;81.74
21781;BME280;52576;53.614;9.894;2023-03-19T00:58:40;100962.84;;;8.56;81.96
21781;BME280;52576;53.614;9.894;2023-03-19T01:00:43;100964.69;;;8.54;82.02
21781;BME280;52576;53.614;9.894;2023-03-19T01:02:48;100968.25;;;8.53;82.13
21781;BME280;52576;53.614;9.894;2023-03-19T01:04:51;100970.09;;;8.50;82.30
21781;BME280;52576;53.614;9.894;2023-03-19T01:06:55;100978.00;;;8.49;82.33
21781;BME280;52576;53.614;9.894;2023-03-19T01:09:01;100977.25;;;8.47;82.45
21781;BME280;52576;53.614;9.894;2023-03-19T01:11:06;100972.09;;;8.45;82.52
21781;BME280;52576;53.614;9.894;2023-03-19T01:13:10;100968.72;;;8.43;82.65
21781;BME280;52576;53.614;9.894;2023-03-19T01:15:14;100975.81;;;8.41;82.64
21781;BME280;52576;53.614;9.894;2023-03-19T01:17:18;100969.91;;;8.38;82.74
21781;BME280;52576;53.614;9.894;2023-03-19T01:19:22;100973.53;;;8.35;82.72
21781;BME280;52576;53.614;9.894;2023-03-19T01:21:25;100969.31;;;8.33;82.85
21781;BME280;52576;53.614;9.894;2023-03-19T01:23:32;100966.00;;;8.29;82.85
21781;BME280;52576;53.614;9.894;2023-03-19T01:25:38;100966.94;;;8.28;82.93
21781;BME280;52576;53.614;9.894;2023-03-19T01:27:41;100966.16;;;8.26;83.05
21781;BME280;52576;53.614;9.894;2023-03-19T01:29:48;100966.34;;;8.23;83.15
21781;BME280;52576;53.614;9.894;2023-03-19T01:32:01;100969.09;;;8.20;83.34
21781;BME280;52576;53.614;9.894;2023-03-19T01:34:23;100963.13;;;8.18;83.53
21781;BME280;52576;53.614;9.894;2023-03-19T01:36:30;100961.44;;;8.17;83.47
21781;BME280;52576;53.614;9.894;2023-03-19T01:38:36;100952.84;;;8.15;83.76
21781;BME280;52576;53.614;9.894;2023-03-19T01:40:46;100963.28;;;8.15;83.76
21781;BME280;52576;53.614;9.894;2023-03-19T01:42:52;100964.13;;;8.15;83.83
21781;BME280;52576;53.614;9.894;2023-03-19T01:45:32;100971.03;;;8.16;83.88
21781;BME280;52576;53.614;9.894;2023-03-19T01:47:56;100965.72;;;8.18;83.95
21781;BME280;52576;53.614;9.894;2023-03-19T01:50:26;100966.50;;;8.20;83.95
21781;BME280;52576;53.614;9.894;2023-03-19T01:52:51;100961.09;;;8.23;84.22
21781;BME280;52576;53.614;9.894;2023-03-19T01:55:19;100960.09;;;8.26;84.15
21781;BME280;52576;53.614;9.894;2023-03-19T01:57:39;100956.50;;;8.28;84.17
21781;BME280;52576;53.614;9.894;2023-03-19T02:00:02;100951.19;;;8.30;84.25
21781;BME280;52576;53.614;9.894;2023-03-19T02:02:21;100952.78;;;8.32;84.21
21781;BME280;52576;53.614;9.894;2023-03-19T02:04:28;100960.63;;;8.32;84.38
21781;BME280;52576;53.614;9.894;2023-03-19T02:06:34;100955.41;;;8.32;84.33
21781;BME280;52576;53.614;9.894;2023-03-19T02:08:39;100958.78;;;8.34;84.46
21781;BME280;52576;53.614;9.894;2023-03-19T02:10:45;100954.47;;;8.33;84.39
21781;BME280;52576;53.614;9.894;2023-03-19T02:12:50;100951.88;;;8.33;84.49
21781;BME280;52576;53.614;9.894;2023-03-19T02:14:54;100945.72;;;8.34;84.49
21781;BME280;52576;53.614;9.894;2023-03-19T02:16:58;100950.19;;;8.32;84.37
21781;BME280;52576;53.614;9.894;2023-03-19T02:19:01;100949.41;;;8.30;84.40
21781;BME280;52576;53.614;9.894;2023-03-19T02:21:06;100950.34;;;8.29;84.29
21781;BME280;52576;53.614;9.894;2023-03-19T02:23:15;100952.19;;;8.27;84.49
21781;BME280;52576;53.614;9.894;2023-03-19T02:25:30;100949.56;;;8.27;84.50
21781;BME280;52576;53.614;9.894;2023-03-19T02:27:37;100948.97;;;8.22;84.31
21781;BME280;52576;53.614;9.894;2023-03-19T02:29:40;100949.13;;;8.19;84.41
21781;BME280;52576;53.614;9.894;2023-03-19T02:31:44;100944.09;;;8.16;84.34
21781;BME280;52576;53.614;9.894;2023-03-19T02:33:58;100946.84;;;8.13;84.50
21781;BME280;52576;53.614;9.894;2023-03-19T02:36:04;100953.06;;;8.10;84.48
21781;BME280;52576;53.614;9.894;2023-03-19T02:38:10;100953.25;;;8.07;84.47
21781;BME280;52576;53.614;9.894;2023-03-19T02:40:18;100951.66;;;8.05;84.55
21781;BME280;52576;53.614;9.894;2023-03-19T02:42:25;100956.13;;;8.03;84.57
21781;BME280;52576;53.614;9.894;2023-03-19T02:44:32;100954.50;;;8.00;84.55
21781;BME280;52576;53.614;9.894;2023-03-19T02:46:35;100957.19;;;7.99;84.75
21781;BME280;52576;53.614;9.894;2023-03-19T02:48:39;100946.84;;;7.97;84.91
21781;BME280;52576;53.614;9.894;2023-03-19T02:50:43;100954.69;;;7.97;84.94
21781;BME280;52576;53.614;9.894;2023-03-19T02:52:46;100952.31;;;7.93;85.04
21781;BME280;52576;53.614;9.894;2023-03-19T02:54:50;100954.16;;;7.91;84.92
21781;BME280;52576;53.614;9.894;2023-03-19T02:56:53;100950.84;;;7.87;85.04
21781;BME280;52576;53.614;9.894;2023-03-19T02:58:57;100947.56;;;7.83;84.99
21781;BME280;52576;53.614;9.894;2023-03-19T03:01:01;100946.97;;;7.78;85.09
21781;BME280;52576;53.614;9.894;2023-03-19T03:03:06;100951.44;;;7.76;85.18
21781;BME280;52576;53.614;9.894;2023-03-19T03:05:09;100955.13;;;7.72;85.06
21781;BME280;52576;53.614;9.894;2023-03-19T03:07:13;100948.38;;;7.68;85.28
21781;BME280;52576;53.614;9.894;2023-03-19T03:09:16;100951.22;;;7.64;85.20
21781;BME280;52576;53.614;9.894;2023-03-19T03:11:20;100952.22;;;7.61;85.29
21781;BME280;52576;53.614;9.894;2023-03-19T03:13:23;100952.38;;;7.58;85.55
21781;BME280;52576;53.614;9.894;2023-03-19T03:15:27;100950.81;;;7.54;85.67
21781;BME280;52576;53.614;9.894;2023-03-19T03:17:32;100951.88;;;7.52;85.66
21781;BME280;52576;53.614;9.894;2023-03-19T03:19:35;100954.53;;;7.50;85.77
21781;BME280;52576;53.614;9.894;2023-03-19T03:21:39;100952.00;;;7.48;85.85
21781;BME280;52576;53.614;9.894;2023-03-19T03:23:42;100965.13;;;7.47;85.71
21781;BME280;52576;53.614;9.894;2023-03-19T03:25:48;100959.00;;;7.48;85.98
21781;BME280;52576;53.614;9.894;2023-03-19T03:27:52;100965.13;;;7.47;85.93
21781;BME280;52576;53.614;9.894;2023-03-19T03:29:55;100963.28;;;7.49;85.90
21781;BME280;52576;53.614;9.894;2023-03-19T03:31:59;100954.53;;;7.50;86.06
21781;BME280;52576;53.614;9.894;2023-03-19T03:34:04;100953.63;;;7.51;86.08
21781;BME280;52576;53.614;9.894;2023-03-19T03:36:08;100957.72;;;7.55;86.26
21781;BME280;52576;53.614;9.894;2023-03-19T03:38:12;100953.22;;;7.59;86.40
21781;BME280;52576;53.614;9.894;2023-03-19T03:40:15;100953.06;;;7.62;86.60
21781;BME280;52576;53.614;9.894;2023-03-19T03:42:19;100961.50;;;7.67;86.85
21781;BME280;52576;53.614;9.894;2023-03-19T03:44:23;100963.88;;;7.71;86.81
21781;BME280;52576;53.614;9.894;2023-03-19T03:46:27;100966.16;;;7.77;87.09
21781;BME280;52576;53.614;9.894;2023-03-19T03:48:30;100970.28;;;7.81;87.14
21781;BME280;52576;53.614;9.894;2023-03-19T03:50:35;100957.84;;;7.87;87.38
21781;BME280;52576;53.614;9.894;2023-03-19T03:52:42;100961.97;;;7.91;87.26
21781;BME280;52576;53.614;9.894;2023-03-19T03:54:46;100960.91;;;7.95;87.27
21781;BME280;52576;53.614;9.894;2023-03-19T03:56:50;100958.91;;;8.00;87.44
21781;BME280;52576;53.614;9.894;2023-03-19T03:58:53;100954.28;;;8.05;87.36
21781;BME280;52576;53.614;9.894;2023-03-19T04:00:57;100958.38;;;8.09;87.61
21781;BME280;52576;53.614;9.894;2023-03-19T04:03:01;100957.38;;;8.11;87.60
21781;BME280;52576;53.614;9.894;2023-03-19T04:05:05;100959.75;;;8.16;87.49
21781;BME280;52576;53.614;9.894;2023-03-19T04:07:10;100950.06;;;8.18;87.54
21781;BME280;52576;53.614;9.894;2023-03-19T04:09:18;100956.06;;;8.20;87.54
21781;BME280;52576;53.614;9.894;2023-03-19T04:11:21;100958.66;;;8.20;87.45
21781;BME280;52576;53.614;9.894;2023-03-19T04:13:25;100957.75;;;8.21;87.53
21781;BME280;52576;53.614;9.894;2023-03-19T04:15:29;100964.66;;;8.22;87.43
21781;BME280;52576;53.614;9.894;2023-03-19T04:17:34;100964.66;;;8.22;87.41
21781;BME280;52576;53.614;9.894;2023-03-19T04:19:38;100953.34;;;8.22;87.51
21781;BME280;52576;53.614;9.894;2023-03-19T04:21:41;100965.50;;;8.23;87.44
21781;BME280;52576;53.614;9.894;2023-03-19T04:23:47;100962.03;;;8.22;87.48
21781;BME280;52576;53.614;9.894;2023-03-19T04:25:50;100960.19;;;8.24;87.60
21781;BME280;52576;53.614;9.894;2023-03-19T04:27:56;100971.41;;;8.26;87.58
21781;BME280;52576;53.614;9.894;2023-03-19T04:30:02;100960.78;;;8.29;87.67
21781;BME280;52576;53.614;9.894;2023-03-19T04:32:06;100961.56;;;8.31;87.88
21781;BME280;52576;53.614;9.894;2023-03-19T04:34:10;100965.75;;;8.34;87.53
21781;BME280;52576;53.614;9.894;2023-03-19T04:36:14;100965.69;;;8.35;87.79
21781;BME280;52576;53.614;9.894;2023-03-19T04:38:19;100961.38;;;8.34;87.76
21781;BME280;52576;53.614;9.894;2023-03-19T04:40:24;100959.63;;;8.35;87.62
21781;BME280;52576;53.614;9.894;2023-03-19T04:42:28;100968.22;;;8.37;87.74
21781;BME280;52576;53.614;9.894;2023-03-19T04:44:40;100961.22;;;8.37;87.58
21781;BME280;52576;53.614;9.894;2023-03-19T04:46:45;100958.59;;;8.37;87.66
21781;BME280;52576;53.614;9.894;2023-03-19T04:48:50;100964.75;;;8.36;87.68
21781;BME280;52576;53.614;9.894;2023-03-19T04:50:54;100960.47;;;8.35;87.65
21781;BME280;52576;53.614;9.894;2023-03-19T04:52:58;100962.06;;;8.38;87.67
21781;BME280;52576;53.614;9.894;2023-03-19T04:55:02;100960.28;;;8.38;87.54
21781;BME280;52576;53.614;9.894;2023-03-19T04:57:16;100968.91;;;8.40;87.66
21781;BME280;52576;53.614;9.894;2023-03-19T04:59:22;100970.59;;;8.41;87.69
21781;BME280;52576;53.614;9.894;2023-03-19T05:01:26;100977.50;;;8.42;87.60
21781;BME280;52576;53.614;9.894;2023-03-19T05:03:41;100975.63;;;8.44;87.60
21781;BME280;52576;53.614;9.894;2023-03-19T05:05:45;100969.50;;;8.45;87.67
21781;BME280;52576;53.614;9.894;2023-03-19T05:07:48;100971.19;;;8.46;87.72
21781;BME280;52576;53.614;9.894;2023-03-19T05:09:52;100971.94;;;8.48;87.75
21781;BME280;52576;53.614;9.894;2023-03-19T05:11:56;100964.78;;;8.52;87.96
21781;BME280;52576;53.614;9.894;2023-03-19T05:14:01;100972.44;;;8.55;87.76
21781;BME280;52576;53.614;9.894;2023-03-19T05:16:16;100970.59;;;8.57;87.75
21781;BME280;52576;53.614;9.894;2023-03-19T05:18:20;100967.88;;;8.59;87.54
21781;BME280;52576;53.614;9.894;2023-03-19T05:20:23;100971.25;;;8.61;87.68
21781;BME280;52576;53.614;9.894;2023-03-19T05:22:34;100972.00;;;8.63;87.56
21781;BME280;52576;53.614;9.894;2023-03-19T05:24:37;100973.69;;;8.64;87.67
21781;BME280;52576;53.614;9.894;2023-03-19T05:26:42;100971.06;;;8.64;87.55
21781;BME280;52576;53.614;9.894;2023-03-19T05:29:05;100969.41;;;8.63;87.48
21781;BME280;52576;53.614;9.894;2023-03-19T05:31:28;100965.84;;;8.64;87.50
21781;BME280;52576;53.614;9.894;2023-03-19T05:33:31;100963.25;;;8.64;87.49
21781;BME280;52576;53.614;9.894;2023-03-19T05:35:36;100966.69;;;8.64;87.47
21781;BME280;52576;53.614;9.894;2023-03-19T05:37:46;100955.41;;;8.64;87.46
21781;BME280;52576;53.614;9.894;2023-03-19T05:39:49;100958.94;;;8.63;87.56
21781;BME280;52576;53.614;9.894;2023-03-19T05:41:53;100961.56;;;8.63;87.49
21781;BME280;52576;53.614;9.894;2023-03-19T05:44:01;100955.56;;;8.61;87.36
21781;BME280;52576;53.614;9.894;2023-03-19T05:46:18;100960.78;;;8.61;87.50
21781;BME280;52576;53.614;9.894;2023-03-19T05:48:22;100972.16;;;8.60;87.46
21781;BME280;52576;53.614;9.894;2023-03-19T05:50:25;100979.94;;;8.61;87.34
21781;BME280;52576;53.614;9.894;2023-03-19T05:52:51;100974.63;;;8.63;87.53
21781;BME280;52576;53.614;9.894;2023-03-19T05:54:55;100979.84;;;8.63;87.64
21781;BME280;52576;53.614;9.894;2023-03-19T05:57:08;100979.84;;;8.63;87.46
21781;BME280;52576;53.614;9.894;2023-03-19T05:59:30;100976.31;;;8.64;87.51
21781;BME280;52576;53.614;9.894;2023-03-19T06:02:00;100984.91;;;8.66;87.53
21781;BME280;52576;53.614;9.894;2023-03-19T06:04:05;100983.06;;;8.68;87.53
21781;BME280;52576;53.614;9.894;2023-03-19T06:06:08;100984.75;;;8.69;87.66
21781;BME280;52576;53.614;9.894;2023-03-19T06:08:17;100987.19;;;8.72;87.46
21781;BME280;52576;53.614;9.894;2023-03-19T06:10:38;100992.25;;;8.75;87.39
21781;BME280;52576;53.614;9.894;2023-03-19T06:12:44;100996.53;;;8.76;87.35
21781;BME280;52576;53.614;9.894;2023-03-19T06:15:11;100993.75;;;8.79;87.18
21781;BME280;52576;53.614;9.894;2023-03-19T06:17:48;100990.97;;;8.82;87.24
21781;BME280;52576;53.614;9.894;2023-03-19T06:19:52;100989.09;;;8.84;87.21
21781;BME280;52576;53.614;9.894;2023-03-19T06:21:56;100987.16;;;8.88;87.13
21781;BME280;52576;53.614;9.894;2023-03-19T06:23:59;101000.06;;;8.91;87.06
21781;BME280;52576;53.614;9.894;2023-03-19T06:26:07;100987.75;;;8.93;87.01
21781;BME280;52576;53.614;9.894;2023-03-19T06:28:18;100994.50;;;8.97;87.04
21781;BME280;52576;53.614;9.894;2023-03-19T06:30:23;101003.94;;;8.99;87.00
21781;BME280;52576;53.614;9.894;2023-03-19T06:32:27;101007.22;;;9.03;86.94
21781;BME280;52576;53.614;9.894;2023-03-19T06:34:38;101012.19;;;9.07;86.91
21781;BME280;52576;53.614;9.894;2023-03-19T06:36:41;101006.75;;;9.10;86.91
21781;BME280;52576;53.614;9.894;2023-03-19T06:38:47;101010.91;;;9.14;86.70
21781;BME280;52576;53.614;9.894;2023-03-19T06:40:50;101010.81;;;9.16;86.72
21781;BME280;52576;53.614;9.894;2023-03-19T06:42:53;101009.03;;;9.16;86.57
21781;BME280;52576;53.614;9.894;2023-03-19T06:44:57;101009.78;;;9.18;86.53
21781;BME280;52576;53.614;9.894;2023-03-19T06:47:00;101020.09;;;9.22;86.50
21781;BME280;52576;53.614;9.894;2023-03-19T06:49:05;101010.47;;;9.22;86.31
21781;BME280;52576;53.614;9.894;2023-03-19T06:51:10;101016.38;;;9.26;86.25
21781;BME280;52576;53.614;9.894;2023-03-19T06:53:13;101012.66;;;9.30;86.29
21781;BME280;52576;53.614;9.894;2023-03-19T06:55:17;101019.41;;;9.34;86.15
21781;BME280;52576;53.614;9.894;2023-03-19T06:57:21;101017.34;;;9.39;86.25
21781;BME280;52576;53.614;9.894;2023-03-19T06:59:25;101013.63;;;9.43;86.14
21781;BME280;52576;53.614;9.894;2023-03-19T07:01:28;101018.50;;;9.49;86.08
21781;BME280;52576;53.614;9.894;2023-03-19T07:03:32;101020.75;;;9.55;86.00
21781;BME280;52576;53.614;9.894;2023-03-19T07:05:36;101023.03;;;9.61;86.10
21781;BME280;52576;53.614;9.894;2023-03-19T07:07:40;101021.81;;;9.67;85.79
21781;BME280;52576;53.614;9.894;2023-03-19T07:09:44;101024.91;;;9.73;85.74
21781;BME280;52576;53.614;9.894;2023-03-19T07:11:47;101024.53;;;9.79;85.70
21781;BME280;52576;53.614;9.894;2023-03-19T07:13:51;101031.19;;;9.85;85.53
21781;BME280;52576;53.614;9.894;2023-03-19T07:15:54;101032.50;;;9.92;85.39
21781;BME280;52576;53.614;9.894;2023-03-19T07:17:58;101040.91;;;9.97;85.11
21781;BME280;52576;53.614;9.894;2023-03-19T07:20:01;101035.31;;;10.03;84.81
21781;BME280;52576;53.614;9.894;2023-03-19T07:22:05;101041.97;;;10.09;84.58
21781;BME280;52576;53.614;9.894;2023-03-19T07:24:10;101045.88;;;10.16;84.45
21781;BME280;52576;53.614;9.894;2023-03-19T07:26:13;101040.31;;;10.22;84.29
21781;BME280;52576;53.614;9.894;2023-03-19T07:28:17;101043.31;;;10.30;84.05
21781;BME280;52576;53.614;9.894;2023-03-19T07:30:21;101056.78;;;10.38;83.67
21781;BME280;52576;53.614;9.894;2023-03-19T07:32:24;101053.69;;;10.46;83.37
21781;BME280;52576;53.614;9.894;2023-03-19T07:34:28;101047.97;;;10.53;82.86
21781;BME280;52576;53.614;9.894;2023-03-19T07:36:31;101056.97;;;10.64;82.65
21781;BME280;52576;53.614;9.894;2023-03-19T07:38:35;101053.84;;;10.71;82.18
21781;BME280;52576;53.614;9.894;2023-03-19T07:40:40;101053.47;;;10.77;81.83
21781;BME280;52576;53.614;9.894;2023-03-19T07:43:00;101052.97;;;10.85;81.28
21781;BME280;52576;53.614;9.894;2023-03-19T07:45:04;101052.47;;;10.93;80.76
21781;BME280;52576;53.614;9.894;2023-03-19T07:47:08;101063.41;;;10.99;80.20
21781;BME280;52576;53.614;9.894;2023-03-19T07:49:29;101063.03;;;11.05;79.77
21781;BME280;52576;53.614;9.894;2023-03-19T07:51:32;101066.22;;;11.10;79.33
21781;BME280;52576;53.614;9.894;2023-03-19T07:53:35;101060.78;;;11.13;78.88
21781;BME280;52576;53.614;9.894;2023-03-19T07:55:40;101050.09;;;11.16;78.58
21781;BME280;52576;53.614;9.894;2023-03-19T07:57:44;101052.38;;;11.21;78.29
21781;BME280;52576;53.614;9.894;2023-03-19T07:59:47;101048.44;;;11.28;78.04
21781;BME280;52576;53.614;9.894;2023-03-19T08:01:51;101046.25;;;11.35;77.68
21781;BME280;52576;53.614;9.894;2023-03-19T08:03:54;101044.19;;;11.40;77.38
21781;BME280;52576;53.614;9.894;2023-03-19T08:05:58;101051.63;;;11.46;77.15
21781;BME280;52576;53.614;9.894;2023-03-19T08:08:01;101065.28;;;11.51;76.87
21781;BME280;52576;53.614;9.894;2023-03-19T08:10:06;101059.63;;;11.57;76.67
21781;BME280;52576;53.614;9.894;2023-03-19T08:12:12;101062.81;;;11.62;76.25
21781;BME280;52576;53.614;9.894;2023-03-19T08:14:15;101062.41;;;11.68;75.92
21781;BME280;52576;53.614;9.894;2023-03-19T08:16:23;101055.03;;;11.73;75.73
21781;BME280;52576;53.614;9.894;2023-03-19T08:18:27;101061.81;;;11.77;75.74
21781;BME280;52576;53.614;9.894;2023-03-19T08:20:31;101058.03;;;11.81;75.58
21781;BME280;52576;53.614;9.894;2023-03-19T08:22:36;101061.19;;;11.86;75.24
21781;BME280;52576;53.614;9.894;2023-03-19T08:24:40;101065.31;;;11.91;74.95
21781;BME280;52576;53.614;9.894;2023-03-19T08:26:43;101057.22;;;11.94;74.92
21781;BME280;52576;53.614;9.894;2023-03-19T08:28:48;101058.66;;;11.98;74.50
21781;BME280;52576;53.614;9.894;2023-03-19T08:30:52;101067.06;;;12.03;74.28
21781;BME280;52576;53.614;9.894;2023-03-19T08:32:57;101065.81;;;12.08;73.92
21781;BME280;52576;53.614;9.894;2023-03-19T08:35:00;101067.94;;;12.16;73.63
21781;BME280;52576;53.614;9.894;2023-03-19T08:37:04;101074.44;;;12.23;73.40
21781;BME280;52576;53.614;9.894;2023-03-19T08:39:07;101069.38;;;12.33;73.39
21781;BME280;52576;53.614;9.894;2023-03-19T08:41:11;101065.28;;;12.41;72.95
21781;BME280;52576;53.614;9.894;2023-03-19T08:43:14;101067.25;;;12.50;72.32
21781;BME280;52576;53.614;9.894;2023-03-19T08:45:20;101069.47;;;12.56;71.84
21781;BME280;52576;53.614;9.894;2023-03-19T08:47:24;101065.78;;;12.59;71.44
21781;BME280;52576;53.614;9.894;2023-03-19T08:49:27;101069.97;;;12.62;71.47
21781;BME280;52576;53.614;9.894;2023-03-19T08:51:31;101074.31;;;12.63;71.07
21781;BME280;52576;53.614;9.894;2023-03-19T08:53:35;101064.50;;;12.65;70.78
21781;BME280;52576;53.614;9.894;2023-03-19T08:55:39;101069.56;;;12.68;70.71
21781;BME280;52576;53.614;9.894;2023-03-19T08:57:42;101074.59;;;12.71;70.36
21781;BME280;52576;53.614;9.894;2023-03-19T08:59:45;101079.63;;;12.74;70.24
21781;BME280;52576;53.614;9.894;2023-03-19T09:01:51;101067.19;;;12.76;69.98
21781;BME280;52576;53.614;9.894;2023-03-19T09:03:55;101071.63;;;12.75;69.93
21781;BME280;52576;53.614;9.894;2023-03-19T09:05:58;101073.09;;;12.79;69.88
21781;BME280;52576;53.614;9.894;2023-03-19T09:08:02;101076.88;;;12.88;69.66
21781;BME280;52576;53.614;9.894;2023-03-19T09:10:06;101079.59;;;12.99;69.55
21781;BME280;52576;53.614;9.894;2023-03-19T09:12:12;101080.38;;;13.12;69.04
21781;BME280;52576;53.614;9.894;2023-03-19T09:14:16;101076.75;;;13.26;68.53
21781;BME280;52576;53.614;9.894;2023-03-19T09:16:21;101080.28;;;13.38;68.21
21781;BME280;52576;53.614;9.894;2023-03-19T09:18:26;101082.13;;;13.48;68.04
21781;BME280;52576;53.614;9.894;2023-03-19T09:20:29;101080.38;;;13.60;67.75
21781;BME280;52576;53.614;9.894;2023-03-19T09:22:33;101087.72;;;13.68;66.93
21781;BME280;52576;53.614;9.894;2023-03-19T09:24:36;101085.47;;;13.74;66.66
21781;BME280;52576;53.614;9.894;2023-03-19T09:26:41;101084.25;;;13.78;66.31
21781;BME280;52576;53.614;9.894;2023-03-19T09:28:45;101085.69;;;13.82;66.16
21781;BME280;52576;53.614;9.894;2023-03-19T09:30:49;101086.44;;;13.84;65.68
21781;BME280;52576;53.614;9.894;2023-03-19T09:32:53;101088.09;;;13.85;65.40
21781;BME280;52576;53.614;9.894;2023-03-19T09:34:58;101088.22;;;13.84;65.20
21781;BME280;52576;53.614;9.894;2023-03-19T09:37:02;101102.25;;;13.84;65.32
21781;BME280;52576;53.614;9.894;2023-03-19T09:39:06;101099.84;;;13.81;65.21
21781;BME280;52576;53.614;9.894;2023-03-19T09:41:15;101107.75;;;13.81;64.96
21781;BME280;52576;53.614;9.894;2023-03-19T09:43:35;101099.22;;;13.78;64.71
21781;BME280;52576;53.614;9.894;2023-03-19T09:45:43;101108.91;;;13.77;64.69
21781;BME280;52576;53.614;9.894;2023-03-19T09:47:50;101109.66;;;13.79;64.61
21781;BME280;52576;53.614;9.894;2023-03-19T09:49:59;101107.00;;;13.79;64.37
21781;BME280;52576;53.614;9.894;2023-03-19T09:52:13;101115.41;;;13.84;64.60
21781;BME280;52576;53.614;9.894;2023-03-19T09:54:30;101113.28;;;13.89;64.75
21781;BME280;52576;53.614;9.894;2023-03-19T09:56:34;101116.41;;;13.95;64.14
21781;BME280;52576;53.614;9.894;2023-03-19T09:58:38;101116.19;;;13.98;64.45
21781;BME280;52576;53.614;9.894;2023-03-19T10:00:43;101107.31;;;13.99;63.97
21781;BME280;52576;53.614;9.894;2023-03-19T10:02:53;101107.22;;;14.00;64.14
21781;BME280;52576;53.614;9.894;2023-03-19T10:05:10;101115.97;;;14.01;63.83
21781;BME280;52576;53.614;9.894;2023-03-19T10:07:32;101114.28;;;14.00;63.53
21781;BME280;52576;53.614;9.894;2023-03-19T10:09:47;101113.44;;;13.99;63.55
21781;BME280;52576;53.614;9.894;2023-03-19T10:12:04;101116.19;;;13.98;63.89
21781;BME280;52576;53.614;9.894;2023-03-19T10:14:27;101116.19;;;13.98;64.02
21781;BME280;52576;53.614;9.894;2023-03-19T10:16:37;101119.31;;;14.03;63.65
21781;BME280;52576;53.614;9.894;2023-03-19T10:18:47;101119.56;;;14.11;63.70
21781;BME280;52576;53.614;9.894;2023-03-19T10:20:55;101116.00;;;14.23;63.36
21781;BME280;52576;53.614;9.894;2023-03-19T10:23:05;101115.53;;;14.40;63.49
21781;BME280;52576;53.614;9.894;2023-03-19T10:25:20;101115.69;;;14.61;62.71
21781;BME280;52576;53.614;9.894;2023-03-19T10:27:26;101109.81;;;14.80;62.49
21781;BME280;52576;53.614;9.894;2023-03-19T10:29:30;101107.16;;;15.02;61.84
21781;BME280;52576;53.614;9.894;2023-03-19T10:31:42;101111.53;;;15.24;61.42
21781;BME280;52576;53.614;9.894;2023-03-19T10:33:52;101113.50;;;15.43;60.85
21781;BME280;52576;53.614;9.894;2023-03-19T10:36:04;101106.06;;;15.59;60.53
21781;BME280;52576;53.614;9.894;2023-03-19T10:38:17;101112.25;;;15.69;59.12
21781;BME280;52576;53.614;9.894;2023-03-19T10:40:25;101106.97;;;15.69;58.85
21781;BME280;52576;53.614;9.894;2023-03-19T10:42:38;101107.22;;;15.66;58.92
21781;BME280;52576;53.614;9.894;2023-03-19T10:44:48;101109.38;;;15.61;58.63
21781;BME280;52576;53.614;9.894;2023-03-19T10:46:56;101117.59;;;15.58;58.91
21781;BME280;52576;53.614;9.894;2023-03-19T10:49:00;101122.88;;;15.58;58.68
21781;BME280;52576;53.614;9.894;2023-03-19T10:51:05;101122.59;;;15.61;58.80
21781;BME280;52576;53.614;9.894;2023-03-19T10:53:28;101120.66;;;15.63;58.48
21781;BME280;52576;53.614;9.894;2023-03-19T10:55:33;101120.66;;;15.63;58.40
21781;BME280;52576;53.614;9.894;2023-03-19T10:57:40;101128.16;;;15.58;58.40
21781;BME280;52576;53.614;9.894;2023-03-19T10:59:44;101118.06;;;15.52;58.87
21781;BME280;52576;53.614;9.894;2023-03-19T11:01:49;101119.38;;;15.46;58.56
21781;BME280;52576;53.614;9.894;2023-03-19T11:03:59;101109.31;;;15.40;58.74
21781;BME280;52576;53.614;9.894;2023-03-19T11:06:08;101117.25;;;15.40;58.64
21781;BME280;52576;53.614;9.894;2023-03-19T11:08:20;101114.94;;;15.47;58.76